Time;durP1;ratioP1;P1;durP2;ratioP2;P2;SDS_P1;SDS_P2;PMS_P1;PMS_P2;Temp;Humidity;BMP_temperature;BMP_pressure;BME280_temperature;BME280_humidity;BME280_pressure;Samples;Min_cycle;Max_cycle;Signal;HPM_P1;HPM_P2
2024/01/01 00:00:12;;;;;;;6.45;4.70;;;;;;;7.05;97.59;99377.66;5050224;28;20041;-38
2024/01/01 00:02:38;;;;;;;8.38;4.60;;;;;;;7.13;96.79;99384.75;5047297;28;20029;-39
2024/01/01 00:05:04;;;;;;;6.95;3.80;;;;;;;7.22;96.04;99388.16;5050808;28;20508;-38
2024/01/01 00:07:29;;;;;;;6.78;4.05;;;;;;;7.33;95.36;99379.84;5042821;28;20108;-37
2024/01/01 00:09:55;;;;;;;6.70;4.63;;;;;;;7.41;94.58;99366.53;5042689;28;20044;-39
2024/01/01 00:12:20;;;;;;;6.82;4.13;;;;;;;7.31;95.44;99385.31;5037323;28;20044;-37
2024/01/01 00:14:46;;;;;;;7.40;4.45;;;;;;;7.45;95.36;99396.19;5032004;28;20056;-38
2024/01/01 00:17:13;;;;;;;7.28;5.00;;;;;;;7.38;94.89;99376.69;5031931;28;20068;-38
2024/01/01 00:19:38;;;;;;;10.00;5.93;;;;;;;7.35;95.75;99394.56;5032056;28;20568;-39
2024/01/01 00:22:04;;;;;;;8.02;4.55;;;;;;;7.48;94.76;99403.78;5032040;28;20371;-37
2024/01/01 00:24:29;;;;;;;6.00;4.00;;;;;;;7.48;94.44;99394.00;5032158;28;20120;-40
2024/01/01 00:26:55;;;;;;;7.45;4.57;;;;;;;7.50;94.59;99393.84;5031838;28;20046;-39
2024/01/01 00:29:20;;;;;;;8.90;5.30;;;;;;;7.48;95.04;99406.44;5031931;28;20144;-39
2024/01/01 00:31:45;;;;;;;7.60;4.68;;;;;;;7.53;93.56;99389.00;5032020;28;20037;-38
2024/01/01 00:34:11;;;;;;;9.63;4.97;;;;;;;7.42;95.31;99399.16;5030624;28;20041;-38
2024/01/01 00:36:36;;;;;;;7.72;5.20;;;;;;;7.58;94.31;99394.63;5031440;28;20034;-38
2024/01/01 00:39:02;;;;;;;10.90;5.05;;;;;;;7.35;95.89;99389.25;5031838;28;20405;-39
2024/01/01 00:41:28;;;;;;;6.90;3.80;;;;;;;7.42;95.67;99399.16;5030531;28;20551;-39
2024/01/01 00:43:53;;;;;;;7.78;4.47;;;;;;;7.43;95.67;99385.75;5030426;28;20073;-38
2024/01/01 00:46:18;;;;;;;8.35;5.40;;;;;;;7.45;95.93;99388.25;5031415;28;20068;-38
2024/01/01 00:48:44;;;;;;;7.10;4.53;;;;;;;7.40;96.66;99393.22;5031820;28;20080;-38
2024/01/01 00:51:09;;;;;;;9.65;5.45;;;;;;;7.54;95.67;99398.59;5030320;28;20033;-39
2024/01/01 00:53:35;;;;;;;7.72;4.88;;;;;;;7.47;96.67;99397.66;5031781;28;20029;-38
2024/01/01 00:56:00;;;;;;;10.10;5.68;;;;;;;7.46;96.68;99405.78;5031278;28;20720;-37
2024/01/01 00:58:26;;;;;;;9.60;5.30;;;;;;;7.43;97.05;99400.81;5032988;28;20042;-39
2024/01/01 01:00:51;;;;;;;9.27;5.75;;;;;;;7.35;98.32;99407.81;5035695;28;20095;-38
2024/01/01 01:03:16;;;;;;;8.73;5.20;;;;;;;7.34;98.21;99398.22;5017702;28;20048;-38
2024/01/01 01:05:42;;;;;;;7.72;5.30;;;;;;;7.37;98.29;99393.56;5035221;28;20056;-39
2024/01/01 01:08:07;;;;;;;8.10;5.53;;;;;;;7.43;99.00;99392.88;5035509;28;20033;-40
2024/01/01 01:10:33;;;;;;;12.02;6.65;;;;;;;7.32;100.00;99405.50;5035558;28;20480;-38
2024/01/01 01:12:58;;;;;;;9.82;5.18;;;;;;;7.21;100.00;99392.63;5035325;28;20033;-38
2024/01/01 01:15:26;;;;;;;10.80;6.10;;;;;;;7.35;100.00;99404.34;5035190;28;20033;-39
2024/01/01 01:17:51;;;;;;;10.35;4.82;;;;;;;7.12;100.00;99406.09;5035161;28;20030;-39
2024/01/01 01:20:18;;;;;;;8.68;5.30;;;;;;;7.25;100.00;99395.78;5035217;28;20045;-38
2024/01/01 01:22:44;;;;;;;9.48;4.28;;;;;;;7.06;100.00;99392.53;5035290;28;20116;-39
2024/01/01 01:25:10;;;;;;;8.68;4.20;;;;;;;6.97;100.00;99395.38;5034187;28;20124;-39
2024/01/01 01:27:36;;;;;;;4.63;3.03;;;;;;;7.06;100.00;99394.38;5034815;28;20038;-39
2024/01/01 01:30:02;;;;;;;4.63;3.40;;;;;;;7.13;100.00;99399.81;5033894;28;20048;-38
2024/01/01 01:32:27;;;;;;;4.10;2.78;;;;;;;7.12;100.00;99398.16;5033795;28;20044;-38
2024/01/01 01:34:53;;;;;;;5.22;2.85;;;;;;;7.03;100.00;99394.69;5035139;28;20128;-39
2024/01/01 01:37:18;;;;;;;5.53;3.05;;;;;;;7.15;100.00;99398.63;5034607;28;20080;-39
2024/01/01 01:39:44;;;;;;;6.38;3.22;;;;;;;7.14;100.00;99401.44;5033817;28;20069;-39
2024/01/01 01:42:09;;;;;;;5.32;2.80;;;;;;;7.17;100.00;99406.38;5034933;28;20044;-39
2024/01/01 01:44:35;;;;;;;4.32;2.20;;;;;;;7.27;98.80;99396.44;5034842;28;20400;-39
2024/01/01 01:47:01;;;;;;;2.50;1.73;;;;;;;7.34;96.98;99410.63;5016923;28;20708;-39
2024/01/01 01:49:27;;;;;;;2.42;1.55;;;;;;;7.45;96.52;99409.44;5033629;28;20091;-39
2024/01/01 01:51:54;;;;;;;2.65;1.50;;;;;;;7.49;95.33;99416.03;5033520;28;20042;-38
2024/01/01 01:54:23;;;;;;;2.80;1.00;;;;;;;7.54;93.25;99411.03;5034713;28;20492;-39
2024/01/01 01:56:49;;;;;;;1.73;1.17;;;;;;;7.48;93.47;99411.72;5032999;28;20083;-38
2024/01/01 01:59:15;;;;;;;5.78;1.45;;;;;;;7.42;94.02;99409.75;5033369;28;20068;-38
2024/01/01 02:01:41;;;;;;;4.40;1.40;;;;;;;7.42;94.18;99401.81;5033391;28;20026;-39
2024/01/01 02:04:06;;;;;;;2.70;1.27;;;;;;;7.48;93.90;99406.44;5033142;28;20408;-39
2024/01/01 02:06:32;;;;;;;0.98;0.70;;;;;;;7.44;94.18;99399.84;5032835;28;20038;-39
2024/01/01 02:08:58;;;;;;;3.00;1.02;;;;;;;7.47;93.74;99407.44;5033853;28;20420;-39
2024/01/01 02:11:23;;;;;;;1.73;0.90;;;;;;;7.42;94.35;99423.00;5034220;28;20037;-37
2024/01/01 02:13:49;;;;;;;3.00;1.42;;;;;;;7.47;94.63;99418.03;5034127;28;20040;-38
2024/01/01 02:16:14;;;;;;;3.53;1.27;;;;;;;7.53;93.81;99417.34;5033752;28;20053;-39
2024/01/01 02:18:40;;;;;;;1.33;0.90;;;;;;;7.44;94.64;99415.75;5034252;28;20045;-38
2024/01/01 02:21:05;;;;;;;1.80;0.95;;;;;;;7.45;94.90;99422.69;5032926;28;20045;-37
2024/01/01 02:23:31;;;;;;;3.17;1.10;;;;;;;7.39;96.40;99415.44;5032874;28;20060;-38
2024/01/01 02:25:57;;;;;;;2.03;1.15;;;;;;;7.46;95.64;99413.72;5033622;28;20052;-38
2024/01/01 02:28:22;;;;;;;3.03;1.08;;;;;;;7.28;97.15;99420.09;5033849;28;20493;-38
2024/01/01 02:30:47;;;;;;;2.70;1.30;;;;;;;7.35;97.42;99426.34;5032825;28;20071;-38
2024/01/01 02:33:14;;;;;;;2.40;0.90;;;;;;;7.35;96.89;99413.09;5032799;28;20128;-39
2024/01/01 02:35:39;;;;;;;2.90;1.20;;;;;;;7.22;98.38;99391.63;5033636;28;20057;-39
2024/01/01 02:38:07;;;;;;;4.03;1.70;;;;;;;7.32;97.61;99408.16;5033902;28;20464;-38
2024/01/01 02:40:33;;;;;;;3.65;1.73;;;;;;;7.25;98.16;99401.91;5033828;28;20068;-38
2024/01/01 02:43:02;;;;;;;2.53;1.48;;;;;;;7.04;99.18;99399.84;5033724;28;20044;-39
2024/01/01 02:45:29;;;;;;;2.25;1.20;;;;;;;6.99;99.55;99382.81;5032380;28;20044;-37
2024/01/01 02:47:54;;;;;;;2.60;1.25;;;;;;;6.97;99.95;99395.38;5033641;28;20049;-38
2024/01/01 02:50:21;;;;;;;2.78;1.48;;;;;;;6.87;100.00;99405.34;5032700;28;20041;-38
2024/01/01 02:52:47;;;;;;;10.20;1.65;;;;;;;6.86;100.00;99406.34;5033591;28;20029;-38
2024/01/01 02:55:12;;;;;;;2.95;1.42;;;;;;;6.77;100.00;99403.69;5033488;28;20037;-38
2024/01/01 02:57:38;;;;;;;4.10;1.58;;;;;;;6.95;100.00;99402.66;5033270;28;20073;-39
2024/01/01 03:00:04;;;;;;;4.20;1.40;;;;;;;7.07;100.00;99401.31;5033552;28;20045;-39
2024/01/01 03:02:29;;;;;;;3.75;1.45;;;;;;;7.13;99.84;99405.09;5032186;28;20056;-39
2024/01/01 03:04:55;;;;;;;2.40;1.40;;;;;;;7.27;98.97;99420.28;5032077;28;20483;-39
2024/01/01 03:07:21;;;;;;;2.83;1.35;;;;;;;7.25;99.18;99414.34;5033068;28;20033;-39
2024/01/01 03:09:46;;;;;;;2.83;1.13;;;;;;;7.28;99.31;99412.16;5033198;28;20087;-39
2024/01/01 03:12:11;;;;;;;3.15;1.67;;;;;;;7.23;99.53;99409.19;5033263;28;20045;-39
2024/01/01 03:14:37;;;;;;;2.30;1.00;;;;;;;7.18;100.00;99400.13;5033200;28;20037;-39
2024/01/01 03:17:03;;;;;;;2.92;1.48;;;;;;;7.16;99.51;99400.28;5032726;28;20069;-37
2024/01/01 03:19:28;;;;;;;2.47;1.52;;;;;;;7.05;100.00;99404.13;5033423;28;20487;-39
2024/01/01 03:21:53;;;;;;;2.75;1.23;;;;;;;6.95;100.00;99414.09;5031171;28;20048;-41
2024/01/01 03:24:19;;;;;;;4.25;1.23;;;;;;;7.05;100.00;99430.63;5034486;28;20042;-38
2024/01/01 03:26:44;;;;;;;2.47;1.23;;;;;;;7.10;100.00;99414.19;5035406;28;20164;-38
2024/01/01 03:29:10;;;;;;;1.98;1.30;;;;;;;7.02;100.00;99408.94;5034092;28;20045;-39
2024/01/01 03:31:35;;;;;;;5.13;1.10;;;;;;;7.01;100.00;99424.00;5034448;28;20041;-38
2024/01/01 03:34:01;;;;;;;0.95;0.85;;;;;;;7.10;100.00;99414.19;5034048;28;20044;-38
2024/01/01 03:36:26;;;;;;;0.73;0.70;;;;;;;6.94;100.00;99415.09;5032401;28;20479;-38
2024/01/01 03:38:51;;;;;;;3.92;1.40;;;;;;;7.04;100.00;99428.13;5033363;28;20103;-38
2024/01/01 03:41:17;;;;;;;2.13;1.20;;;;;;;7.06;99.39;99399.66;5031345;28;20041;-38
2024/01/01 03:43:43;;;;;;;3.83;0.93;;;;;;;6.99;99.22;99409.28;5031464;28;20061;-38
2024/01/01 03:46:08;;;;;;;4.68;1.70;;;;;;;6.87;100.00;99408.81;5032381;28;20095;-39
2024/01/01 03:48:33;;;;;;;3.65;1.13;;;;;;;6.95;99.49;99411.44;5032593;28;20037;-38
2024/01/01 03:50:59;;;;;;;2.20;0.80;;;;;;;7.01;98.67;99418.69;5032600;28;20125;-38
2024/01/01 03:53:24;;;;;;;2.03;0.93;;;;;;;7.21;97.10;99413.84;5031357;28;20601;-38
2024/01/01 03:55:49;;;;;;;6.53;1.83;;;;;;;7.12;98.19;99414.88;5032019;28;20064;-38
2024/01/01 03:58:15;;;;;;;4.60;1.20;;;;;;;7.14;97.10;99418.16;5032392;28;20048;-39
2024/01/01 04:00:40;;;;;;;2.17;1.05;;;;;;;7.01;97.80;99410.75;5032551;28;20052;-40
2024/01/01 04:03:05;;;;;;;4.68;1.05;;;;;;;7.04;97.46;99417.53;5032524;28;20045;-39
2024/01/01 04:05:31;;;;;;;3.75;1.35;;;;;;;7.10;97.23;99403.59;5031219;28;20461;-40
2024/01/01 04:07:56;;;;;;;4.30;1.13;;;;;;;7.05;96.84;99404.13;5032017;28;20087;-38
2024/01/01 04:10:22;;;;;;;3.05;1.15;;;;;;;7.13;96.25;99413.88;5032129;28;20041;-37
2024/01/01 04:12:47;;;;;;;1.05;0.65;;;;;;;7.07;96.02;99420.66;5031005;28;20512;-38
2024/01/01 04:15:13;;;;;;;1.63;0.80;;;;;;;7.13;94.95;99415.69;5032114;28;20671;-38
2024/01/01 04:17:38;;;;;;;0.93;0.60;;;;;;;7.06;94.88;99419.03;5031790;28;20120;-38
2024/01/01 04:20:10;;;;;;;1.70;0.95;;;;;;;7.23;93.04;99419.78;5032262;28;20049;-37
2024/01/01 04:22:37;;;;;;;2.20;1.02;;;;;;;7.23;92.36;99416.31;5032226;28;20041;-40
2024/01/01 04:25:02;;;;;;;1.83;1.17;;;;;;;7.23;91.98;99414.47;5031893;28;20473;-38
2024/01/01 04:27:28;;;;;;;5.38;0.93;;;;;;;7.25;91.08;99417.81;5031720;28;20039;-38
2024/01/01 04:29:53;;;;;;;4.47;1.05;;;;;;;7.30;90.85;99420.78;5032075;28;20112;-40
2024/01/01 04:32:20;;;;;;;2.38;1.10;;;;;;;7.31;90.42;99425.06;5031793;28;20124;-40
2024/01/01 04:34:45;;;;;;;3.22;1.27;;;;;;;7.19;91.25;99423.78;5031960;28;20485;-39
2024/01/01 04:37:11;;;;;;;4.43;0.93;;;;;;;7.38;90.19;99429.69;5031333;28;20049;-39
2024/01/01 04:39:36;;;;;;;2.97;0.80;;;;;;;7.30;90.59;99428.72;5031839;28;20123;-40
2024/01/01 04:42:03;;;;;;;1.33;0.90;;;;;;;7.35;90.40;99421.06;5031916;28;20495;-40
2024/01/01 04:44:29;;;;;;;1.08;0.80;;;;;;;7.40;90.14;99430.31;5031862;28;20053;-40
2024/01/01 04:46:54;;;;;;;4.65;1.73;;;;;;;7.39;89.53;99431.31;5031472;28;20414;-39
2024/01/01 04:49:19;;;;;;;1.10;0.63;;;;;;;7.36;90.30;99432.47;5031672;28;20045;-40
2024/01/01 04:51:45;;;;;;;2.58;0.88;;;;;;;7.18;91.36;99434.56;5031766;28;20038;-40
2024/01/01 04:54:10;;;;;;;2.72;0.82;;;;;;;7.04;92.60;99436.91;5031652;28;20385;-37
2024/01/01 04:56:36;;;;;;;3.78;0.85;;;;;;;7.15;92.05;99448.13;5031403;28;20061;-40
2024/01/01 04:59:03;;;;;;;1.42;0.75;;;;;;;7.28;91.22;99449.22;5031872;28;20064;-40
2024/01/01 05:01:28;;;;;;;3.80;0.68;;;;;;;7.28;90.77;99443.94;5031662;28;20045;-39
2024/01/01 05:03:54;;;;;;;2.15;0.63;;;;;;;7.26;91.05;99447.75;5031639;28;20049;-39
2024/01/01 05:06:19;;;;;;;3.17;1.02;;;;;;;7.25;90.78;99448.75;5031253;28;20120;-39
2024/01/01 05:08:44;;;;;;;2.75;0.60;;;;;;;7.14;91.49;99452.59;5030323;28;20071;-39
2024/01/01 05:11:10;;;;;;;1.20;0.47;;;;;;;7.21;91.24;99453.56;5031560;28;20412;-40
2024/01/01 05:13:37;;;;;;;1.85;0.57;;;;;;;7.29;90.33;99458.81;5031672;28;20048;-40
2024/01/01 05:16:03;;;;;;;2.53;0.75;;;;;;;7.24;90.51;99463.00;5031255;28;20095;-38
2024/01/01 05:18:28;;;;;;;3.22;0.60;;;;;;;7.24;90.68;99468.31;5031383;28;20030;-39
2024/01/01 05:20:54;;;;;;;1.88;0.90;;;;;;;7.35;89.69;99462.63;5034524;28;20554;-40
2024/01/01 05:23:19;;;;;;;0.68;0.60;;;;;;;7.51;87.97;99469.69;5052533;28;20041;-40
2024/01/01 05:25:45;;;;;;;2.90;1.25;;;;;;;7.47;88.47;99468.38;5050833;28;20035;-39
2024/01/01 05:28:10;;;;;;;1.35;0.77;;;;;;;7.50;88.04;99471.53;5050966;28;20119;-40
2024/01/01 05:30:36;;;;;;;4.60;0.80;;;;;;;7.54;87.21;99462.22;5051032;28;20037;-41
2024/01/01 05:33:01;;;;;;;0.55;0.35;;;;;;;7.44;88.34;99466.91;5051015;28;20029;-39
2024/01/01 05:35:26;;;;;;;3.63;1.13;;;;;;;7.42;88.50;99470.72;5050884;28;20041;-40
2024/01/01 05:37:52;;;;;;;2.00;0.90;;;;;;;7.46;87.95;99466.72;5050626;28;20040;-39
2024/01/01 05:40:17;;;;;;;0.43;0.40;;;;;;;7.49;87.21;99466.38;5051109;28;20381;-39
2024/01/01 05:42:42;;;;;;;3.03;0.90;;;;;;;7.54;86.36;99458.75;5051057;28;20063;-40
2024/01/01 05:45:08;;;;;;;1.35;0.70;;;;;;;7.41;87.57;99461.94;5053263;28;20447;-39
2024/01/01 05:47:33;;;;;;;0.63;0.60;;;;;;;7.43;86.98;99470.53;5054298;28;20040;-40
2024/01/01 05:49:59;;;;;;;2.00;0.70;;;;;;;7.41;87.31;99469.88;5054581;28;20041;-40
2024/01/01 05:52:24;;;;;;;2.72;0.70;;;;;;;7.48;86.38;99464.72;5054405;28;20029;-40
2024/01/01 05:54:49;;;;;;;0.77;0.47;;;;;;;7.47;86.19;99465.72;5054411;28;20437;-39
2024/01/01 05:57:15;;;;;;;2.40;1.00;;;;;;;7.45;86.38;99475.69;5053876;28;20120;-40
2024/01/01 05:59:40;;;;;;;2.40;1.00;;;;;;;7.31;87.50;99467.44;5054362;28;20079;-41
2024/01/01 06:02:05;;;;;;;3.10;0.75;;;;;;;7.27;86.99;99465.31;5054241;28;20493;-39
2024/01/01 06:04:31;;;;;;;1.90;0.70;;;;;;;7.22;87.80;99476.41;5054365;28;20033;-40
2024/01/01 06:06:56;;;;;;;5.10;0.93;;;;;;;7.13;88.30;99472.13;5052526;28;20037;-40
2024/01/01 06:09:22;;;;;;;1.23;0.70;;;;;;;7.08;88.70;99479.75;5054451;28;20124;-39
2024/01/01 06:11:48;;;;;;;2.50;0.80;;;;;;;7.13;88.18;99477.44;5054143;28;20373;-39
2024/01/01 06:14:14;;;;;;;3.13;0.80;;;;;;;7.06;88.42;99479.09;5054054;28;20039;-38
2024/01/01 06:16:40;;;;;;;3.17;0.98;;;;;;;7.04;88.40;99489.03;5053620;28;20127;-38
2024/01/01 06:19:07;;;;;;;2.80;0.73;;;;;;;6.92;89.60;99493.03;5053883;28;20107;-38
2024/01/01 06:21:32;;;;;;;2.65;1.13;;;;;;;7.11;88.29;99500.63;5053837;28;20029;-40
2024/01/01 06:23:57;;;;;;;2.38;0.70;;;;;;;6.98;88.16;99514.38;5053905;28;20083;-38
2024/01/01 06:26:23;;;;;;;1.17;0.43;;;;;;;7.02;89.36;99491.03;5052370;28;20051;-39
2024/01/01 06:28:48;;;;;;;1.30;0.70;;;;;;;7.00;88.97;99500.97;5053763;28;20036;-39
2024/01/01 06:31:13;;;;;;;2.67;0.57;;;;;;;6.85;89.99;99518.53;5053751;28;20041;-38
2024/01/01 06:33:39;;;;;;;1.77;0.68;;;;;;;6.83;90.50;99516.03;5053704;28;20037;-39
2024/01/01 06:36:04;;;;;;;3.00;0.80;;;;;;;6.84;90.26;99520.34;5053081;28;20044;-39
2024/01/01 06:38:30;;;;;;;3.13;0.68;;;;;;;6.78;90.49;99532.44;5053539;28;20545;-39
2024/01/01 06:40:55;;;;;;;2.97;0.90;;;;;;;6.83;90.23;99526.63;5053685;28;20044;-39
2024/01/01 06:43:21;;;;;;;2.33;1.00;;;;;;;6.77;90.67;99538.69;5053550;28;20487;-39
2024/01/01 06:45:46;;;;;;;9.38;1.35;;;;;;;6.86;90.01;99528.97;5053279;28;20029;-38
2024/01/01 06:48:11;;;;;;;4.38;0.80;;;;;;;6.77;90.53;99522.00;5053184;28;20033;-39
2024/01/01 06:50:37;;;;;;;1.80;0.90;;;;;;;6.85;89.67;99537.91;5053852;28;20036;-39
2024/01/01 06:53:03;;;;;;;2.05;0.82;;;;;;;6.79;90.09;99546.50;5053025;28;20393;-38
2024/01/01 06:55:29;;;;;;;0.55;0.50;;;;;;;6.79;90.15;99546.50;5053261;28;20517;-37
2024/01/01 06:57:54;;;;;;;1.98;0.70;;;;;;;6.76;90.54;99558.22;5052753;28;20045;-37
2024/01/01 07:00:20;;;;;;;5.88;1.08;;;;;;;6.77;90.53;99559.06;5053184;28;20029;-37
2024/01/01 07:02:45;;;;;;;2.40;1.05;;;;;;;6.79;90.72;99568.50;5052756;28;20021;-38
2024/01/01 07:05:11;;;;;;;2.30;1.20;;;;;;;6.89;89.38;99563.03;5052963;28;20037;-38
2024/01/01 07:07:36;;;;;;;1.67;0.90;;;;;;;6.91;89.89;99571.66;5052708;28;20029;-36
2024/01/01 07:10:02;;;;;;;2.88;0.82;;;;;;;6.97;90.14;99572.78;5052951;28;20052;-38
2024/01/01 07:12:27;;;;;;;2.83;0.85;;;;;;;6.99;89.99;99579.59;5052388;28;20118;-38
2024/01/01 07:14:54;;;;;;;2.78;1.58;;;;;;;11.89;100.00;99567.47;5052132;28;20043;-35
2024/01/01 07:17:20;;;;;;;2.60;1.30;;;;;;;13.11;83.34;99574.53;5051411;28;20098;-36
2024/01/01 07:19:46;;;;;;;2.95;0.95;;;;;;;14.68;72.85;99590.41;5051993;28;20128;-33
2024/01/01 07:22:11;;;;;;;1.25;0.88;;;;;;;13.84;75.22;99586.00;5051907;28;20112;-33
2024/01/01 07:24:37;;;;;;;5.47;1.35;;;;;;;12.70;66.57;99594.22;5052697;28;20442;-33
2024/01/01 07:27:03;;;;;;;1.88;0.90;;;;;;;8.15;78.03;99603.81;5052162;28;20078;-38
2024/01/01 07:29:30;;;;;;;3.97;0.80;;;;;;;7.54;84.51;99602.69;5052635;28;20036;-37
2024/01/01 07:31:55;;;;;;;3.47;0.80;;;;;;;7.41;86.07;99604.19;5053665;28;20045;-36
2024/01/01 07:34:21;;;;;;;2.45;0.82;;;;;;;7.43;87.21;99615.44;5054826;28;20048;-38
2024/01/01 07:36:48;;;;;;;2.28;0.95;;;;;;;7.16;88.49;99614.81;5051850;28;20063;-36
2024/01/01 07:39:19;;;;;;;1.77;1.00;;;;;;;7.11;89.88;99619.81;5052440;28;20041;-37
2024/01/01 07:41:47;;;;;;;3.00;0.80;;;;;;;7.17;89.39;99611.19;5052576;28;20029;-35
2024/01/01 07:44:12;;;;;;;4.25;1.08;;;;;;;7.25;89.33;99610.38;5052281;28;20056;-36
2024/01/01 07:46:39;;;;;;;1.55;0.75;;;;;;;7.16;89.20;99612.16;5052308;28;20055;-36
2024/01/01 07:49:06;;;;;;;1.65;0.70;;;;;;;7.09;90.28;99611.19;5052078;28;20033;-36
2024/01/01 07:51:32;;;;;;;5.70;0.90;;;;;;;7.18;89.97;99615.50;5052353;28;20163;-35
2024/01/01 07:53:58;;;;;;;2.08;1.00;;;;;;;7.22;89.97;99618.63;5052119;28;20496;-36
2024/01/01 07:56:23;;;;;;;3.00;0.57;;;;;;;7.26;89.31;99607.53;5051684;28;20139;-38
2024/01/01 07:58:52;;;;;;;3.42;0.90;;;;;;;7.35;89.41;99625.06;5052128;28;20037;-35
2024/01/01 08:01:18;;;;;;;1.50;0.70;;;;;;;7.39;89.31;99632.69;5051952;28;20547;-37
2024/01/01 08:03:43;;;;;;;2.80;1.00;;;;;;;7.53;89.12;99630.19;5051894;28;20086;-37
2024/01/01 08:06:09;;;;;;;0.93;0.60;;;;;;;7.60;89.28;99635.63;5051567;28;20045;-36
2024/01/01 08:08:34;;;;;;;4.82;0.88;;;;;;;7.60;88.30;99633.81;5051711;28;20029;-36
2024/01/01 08:10:59;;;;;;;1.63;0.68;;;;;;;7.49;88.41;99630.69;5051954;28;20048;-36
2024/01/01 08:13:25;;;;;;;3.33;1.17;;;;;;;7.60;88.25;99625.03;5052012;28;20045;-35
2024/01/01 08:15:50;;;;;;;1.17;0.60;;;;;;;7.73;87.04;99625.34;5051583;28;20044;-36
2024/01/01 08:18:16;;;;;;;4.38;1.08;;;;;;;7.81;86.84;99621.81;5051563;28;20055;-35
2024/01/01 08:20:42;;;;;;;3.58;0.80;;;;;;;7.80;86.04;99623.66;5051782;28;20033;-37
2024/01/01 08:23:07;;;;;;;3.42;1.00;;;;;;;8.66;81.92;99630.75;5051733;28;20056;-37
2024/01/01 08:25:33;;;;;;;2.63;1.58;;;;;;;9.02;76.35;99619.53;5051571;28;20041;-36
2024/01/01 08:27:58;;;;;;;3.50;0.77;;;;;;;9.62;73.56;99633.78;5049683;28;20090;-36
2024/01/01 08:30:23;;;;;;;2.85;1.05;;;;;;;8.91;77.05;99626.09;5051639;28;20500;-38
2024/01/01 08:32:49;;;;;;;2.50;1.25;;;;;;;8.65;78.50;99626.44;5049482;28;20052;-36
2024/01/01 08:35:14;;;;;;;2.15;0.68;;;;;;;8.31;81.39;99629.44;5051594;28;20119;-36
2024/01/01 08:37:42;;;;;;;3.75;0.70;;;;;;;8.38;80.13;99641.03;5051248;28;20048;-37
2024/01/01 08:40:09;;;;;;;3.15;0.95;;;;;;;8.36;79.95;99637.72;5051545;28;20037;-36
2024/01/01 08:42:34;;;;;;;1.87;0.60;;;;;;;8.07;81.55;99650.75;5051713;28;20033;-36
2024/01/01 08:44:59;;;;;;;1.48;0.73;;;;;;;8.37;81.10;99654.47;5051559;28;20294;-38
2024/01/01 08:47:25;;;;;;;1.67;0.60;;;;;;;8.23;81.77;99658.66;5051085;28;20515;-37
2024/01/01 08:49:50;;;;;;;2.08;0.82;;;;;;;8.81;77.15;99648.59;5051611;28;20047;-36
2024/01/01 08:52:15;;;;;;;1.75;0.63;;;;;;;8.68;78.95;99657.97;5051391;28;20037;-36
2024/01/01 08:54:41;;;;;;;1.98;0.60;;;;;;;8.55;78.95;99657.72;5051604;28;20061;-35
2024/01/01 08:57:06;;;;;;;4.53;0.75;;;;;;;8.57;80.12;99671.63;5050930;28;20048;-36
2024/01/01 08:59:32;;;;;;;5.07;1.08;;;;;;;8.30;82.45;99677.38;5051533;28;20037;-36
2024/01/01 09:01:57;;;;;;;1.02;0.50;;;;;;;8.26;83.58;99663.59;5051181;28;20281;-37
2024/01/01 09:04:22;;;;;;;0.90;0.65;;;;;;;8.40;82.39;99673.53;5051278;28;20041;-37
2024/01/01 09:06:48;;;;;;;3.60;0.90;;;;;;;8.39;82.05;99673.69;5049655;28;20480;-36
2024/01/01 09:09:13;;;;;;;2.38;0.65;;;;;;;8.40;82.51;99670.88;5051250;28;20116;-36
2024/01/01 09:11:39;;;;;;;1.15;0.57;;;;;;;8.39;81.93;99681.66;5051336;28;20389;-36
2024/01/01 09:14:04;;;;;;;2.63;0.82;;;;;;;8.57;81.65;99686.72;5051230;28;20045;-41
2024/01/01 09:16:31;;;;;;;0.47;0.35;;;;;;;8.77;79.76;99687.13;5042510;28;20036;-36
2024/01/01 09:18:59;;;;;;;1.80;0.80;;;;;;;8.66;79.88;99677.72;5051723;28;20036;-36
2024/01/01 09:21:26;;;;;;;3.10;0.70;;;;;;;8.99;77.38;99691.63;5055103;28;20503;-37
2024/01/01 09:23:52;;;;;;;3.15;0.32;;;;;;;9.39;76.55;99709.13;5051973;28;20069;-36
2024/01/01 09:26:17;;;;;;;2.08;0.65;;;;;;;9.11;75.59;99687.53;5055965;28;20060;-37
2024/01/01 09:28:43;;;;;;;1.60;0.43;;;;;;;9.47;73.73;99700.25;5058170;28;20063;-36
2024/01/01 09:31:08;;;;;;;1.95;0.57;;;;;;;9.66;73.11;99690.94;5054057;28;20078;-37
2024/01/01 09:33:33;;;;;;;2.35;0.50;;;;;;;9.69;72.82;99687.91;5054577;28;20028;-36
2024/01/01 09:35:59;;;;;;;1.75;0.63;;;;;;;9.65;72.45;99690.09;5054434;28;20037;-37
2024/01/01 09:38:24;;;;;;;2.22;0.55;;;;;;;9.86;70.35;99696.56;5054706;28;20072;-37
2024/01/01 09:40:53;;;;;;;1.80;0.70;;;;;;;10.06;69.00;99690.50;5054031;28;20033;-37
2024/01/01 09:43:20;;;;;;;0.98;0.50;;;;;;;10.35;68.54;99704.84;5054516;28;20091;-37
2024/01/01 09:45:49;;;;;;;3.90;1.13;;;;;;;10.23;68.10;99701.81;5054358;28;20033;-37
2024/01/01 09:48:14;;;;;;;2.83;0.88;;;;;;;10.78;64.97;99699.66;5054523;28;20037;-37
2024/01/01 09:50:42;;;;;;;1.75;1.10;;;;;;;10.59;66.05;99696.56;5054577;28;20031;-35
2024/01/01 09:53:08;;;;;;;1.02;0.70;;;;;;;9.89;67.39;99694.34;5054440;28;20504;-37
2024/01/01 09:55:33;;;;;;;2.25;0.98;;;;;;;9.82;69.21;99693.41;5054429;28;20110;-35
2024/01/01 09:57:59;;;;;;;2.85;0.88;;;;;;;9.59;70.37;99690.00;5054098;28;20075;-39
2024/01/01 10:00:25;;;;;;;1.98;1.17;;;;;;;10.10;68.93;99695.44;5053975;28;20067;-37
2024/01/01 10:02:51;;;;;;;2.85;0.65;;;;;;;9.20;73.05;99698.97;5054035;28;20041;-38
2024/01/01 10:05:17;;;;;;;1.65;0.57;;;;;;;9.17;73.02;99702.78;5054219;28;20037;-37
2024/01/01 10:07:44;;;;;;;2.40;0.85;;;;;;;9.28;72.60;99700.72;5052141;28;20095;-37
2024/01/01 10:10:12;;;;;;;1.63;0.82;;;;;;;9.29;73.04;99705.03;5049073;28;20049;-35
2024/01/01 10:12:39;;;;;;;2.72;0.80;;;;;;;9.75;69.47;99703.97;5047430;28;20033;-38
2024/01/01 10:15:06;;;;;;;1.38;0.57;;;;;;;10.06;69.33;99700.31;5047733;28;20098;-36
2024/01/01 10:17:31;;;;;;;7.78;1.25;;;;;;;10.00;69.29;99701.88;5047980;28;20458;-36
2024/01/01 10:20:00;;;;;;;5.05;1.00;;;;;;;9.85;71.46;99708.22;5048645;28;20033;-37
2024/01/01 10:22:32;;;;;;;1.52;0.40;;;;;;;9.19;76.82;99711.44;5049922;28;20048;-38
2024/01/01 10:25:14;;;;;;;2.58;0.90;;;;;;;8.90;79.48;99714.75;5048023;28;20200;-39
2024/01/01 10:27:43;;;;;;;2.53;0.82;;;;;;;8.84;77.63;99720.75;5044062;28;20396;-37
2024/01/01 10:30:09;;;;;;;3.42;0.90;;;;;;;8.81;79.30;99713.16;5049458;28;20120;-37
2024/01/01 10:32:34;;;;;;;4.07;1.25;;;;;;;8.90;79.56;99704.13;5049780;28;20120;-37
2024/01/01 10:35:02;;;;;;;3.92;1.05;;;;;;;8.87;80.94;99696.53;5050338;28;20017;-36
2024/01/01 10:37:30;;;;;;;0.70;0.50;;;;;;;8.89;81.16;99701.66;5050219;28;20041;-36
2024/01/01 10:40:04;;;;;;;3.00;0.88;;;;;;;8.83;80.70;99697.03;5049387;28;20060;-38
2024/01/01 10:42:33;;;;;;;2.40;0.90;;;;;;;8.84;81.81;99694.19;5050924;28;20043;-36
2024/01/01 10:45:03;;;;;;;1.27;0.80;;;;;;;8.95;81.54;99696.47;5050779;28;20033;-36
2024/01/01 10:47:29;;;;;;;3.55;1.30;;;;;;;9.06;81.74;99705.00;5045666;28;20030;-35
2024/01/01 10:50:07;;;;;;;2.22;0.95;;;;;;;9.45;78.40;99702.22;5048915;28;20439;-37
2024/01/01 10:52:51;;;;;;;5.43;0.95;;;;;;;9.54;77.23;99698.50;5047838;28;20047;-37
2024/01/01 10:55:33;;;;;;;3.20;1.08;;;;;;;9.42;77.70;99706.09;5049770;28;20057;-37
2024/01/01 10:58:17;;;;;;;2.63;1.10;;;;;;;9.31;78.54;99711.81;5049412;28;20087;-37
2024/01/01 11:00:53;;;;;;;4.28;0.90;;;;;;;9.32;77.77;99717.94;5050388;28;20484;-37
2024/01/01 11:03:19;;;;;;;3.60;1.05;;;;;;;9.11;78.56;99718.59;5049522;28;20060;-36
2024/01/01 11:05:45;;;;;;;1.98;0.80;;;;;;;9.55;77.56;99728.59;5050351;28;20064;-37
2024/01/01 11:08:11;;;;;;;4.05;1.00;;;;;;;9.31;76.82;99729.59;5052845;28;20039;-37
2024/01/01 11:10:37;;;;;;;0.95;0.60;;;;;;;9.29;77.03;99736.94;5052538;28;20021;-36
2024/01/01 11:13:11;;;;;;;1.35;1.00;;;;;;;9.29;76.08;99719.16;5052945;28;20069;-36
2024/01/01 11:15:45;;;;;;;2.17;0.68;;;;;;;9.33;77.33;99727.59;5045313;28;20436;-41
2024/01/01 11:18:18;;;;;;;3.03;1.33;;;;;;;9.38;75.20;99725.22;5052781;28;20025;-36
2024/01/01 11:20:54;;;;;;;5.07;1.10;;;;;;;9.94;72.92;99726.56;5052989;28;20037;-36
2024/01/01 11:23:42;;;;;;;3.17;0.93;;;;;;;9.89;73.24;99717.47;5052984;28;20064;-36
2024/01/01 11:26:23;;;;;;;2.70;1.00;;;;;;;9.78;73.38;99726.72;5052637;28;20040;-35
2024/01/01 11:28:52;;;;;;;1.98;0.93;;;;;;;9.92;73.30;99725.91;5048055;28;20057;-38
2024/01/01 11:31:18;;;;;;;3.05;1.27;;;;;;;9.24;76.87;99721.50;5043431;28;20033;-36
2024/01/01 11:33:43;;;;;;;3.88;1.45;;;;;;;9.30;77.12;99736.75;5041727;28;20044;-34
2024/01/01 11:36:09;;;;;;;2.78;1.10;;;;;;;9.30;77.16;99726.13;5040693;28;20036;-38